createdAt,value
2022-08-02T00:00:56.128Z,75
2022-08-02T00:01:58.093Z,75
2022-08-02T00:03:00.153Z,75
2022-08-02T00:04:02.035Z,75
2022-08-02T00:05:04.072Z,75
2022-08-02T00:06:06.037Z,75
2022-08-02T00:07:08.158Z,75
2022-08-02T00:08:10.074Z,75
2022-08-02T00:09:12.046Z,75
2022-08-02T00:10:14.043Z,77
2022-08-02T00:11:16.179Z,74
2022-08-02T00:12:18.269Z,74
2022-08-02T00:13:20.060Z,76
2022-08-02T00:14:22.072Z,75
2022-08-02T00:15:24.174Z,75
2022-08-02T00:16:37.331Z,75
2022-08-02T00:17:28.170Z,77
2022-08-02T00:18:30.067Z,78
2022-08-02T00:19:32.216Z,75
2022-08-02T00:20:34.078Z,75
2022-08-02T00:21:36.120Z,75
2022-08-02T00:22:38.086Z,74
2022-08-02T00:24:03.386Z,75
2022-08-02T00:24:42.069Z,76
2022-08-02T00:25:54.618Z,75
2022-08-02T00:26:46.076Z,75
2022-08-02T00:27:48.203Z,73
2022-08-02T00:28:50.094Z,74
2022-08-02T00:29:52.715Z,75
2022-08-02T00:30:54.617Z,74
2022-08-02T00:31:56.258Z,73
2022-08-02T00:32:58.084Z,71
2022-08-02T00:34:04.524Z,72
2022-08-02T00:35:02.393Z,71
2022-08-02T00:36:04.567Z,71
2022-08-02T00:37:06.104Z,72
2022-08-02T00:38:08.160Z,72
2022-08-02T00:39:34.316Z,71
2022-08-02T00:40:12.148Z,72
2022-08-02T00:41:14.130Z,72
2022-08-02T00:42:16.100Z,72
2022-08-02T00:43:18.136Z,71
2022-08-02T00:44:20.127Z,71
2022-08-02T00:45:22.142Z,71
2022-08-02T00:46:24.127Z,71
2022-08-02T00:47:26.172Z,71
2022-08-02T00:48:28.106Z,71
2022-08-02T00:49:30.327Z,71
2022-08-02T00:50:32.114Z,71
2022-08-02T00:51:34.155Z,70
2022-08-02T00:52:36.163Z,71
2022-08-02T00:53:38.131Z,71
2022-08-02T00:54:40.112Z,71
2022-08-02T00:55:42.126Z,71
2022-08-02T00:56:49.440Z,71
2022-08-02T00:57:46.151Z,72
2022-08-02T00:58:48.129Z,72
2022-08-02T00:59:50.117Z,72
2022-08-02T01:00:52.152Z,72
2022-08-02T01:01:55.749Z,72
2022-08-02T01:02:56.176Z,71
2022-08-02T01:03:58.119Z,72
2022-08-02T01:05:00.157Z,71
2022-08-02T01:06:15.894Z,71
2022-08-02T01:07:12.452Z,71
2022-08-02T01:08:06.550Z,71
2022-08-02T01:09:08.138Z,71
2022-08-02T01:10:10.133Z,71
2022-08-02T01:11:12.140Z,71
2022-08-02T01:12:14.550Z,71
2022-08-02T01:13:16.239Z,71
2022-08-02T01:14:18.151Z,72
2022-08-02T01:15:20.176Z,72
2022-08-02T01:16:22.159Z,72
2022-08-02T01:17:24.186Z,72
2022-08-02T01:18:26.192Z,72
2022-08-02T01:19:28.159Z,73
2022-08-02T01:20:30.163Z,74
2022-08-02T01:21:32.168Z,74
2022-08-02T01:22:59.827Z,74
2022-08-02T01:23:36.175Z,74
2022-08-02T01:24:38.177Z,73
2022-08-02T01:25:40.169Z,73
2022-08-02T01:26:42.204Z,73
2022-08-02T01:27:45.289Z,73
2022-08-02T01:28:47.175Z,73
2022-08-02T01:29:49.184Z,74
2022-08-02T01:30:51.794Z,75
2022-08-02T01:31:53.187Z,75
2022-08-02T01:32:55.684Z,75
2022-08-02T01:33:57.184Z,77
2022-08-02T01:34:59.185Z,77
2022-08-02T01:36:01.375Z,78
2022-08-02T01:37:03.262Z,79
2022-08-02T01:38:05.240Z,79
2022-08-02T01:39:07.190Z,80
2022-08-02T01:40:09.211Z,79
2022-08-02T01:41:11.202Z,79
2022-08-02T01:42:13.683Z,79
2022-08-02T01:43:15.228Z,78
2022-08-02T01:44:17.246Z,78
2022-08-02T01:45:19.210Z,77
2022-08-02T01:46:21.202Z,77
2022-08-02T01:47:23.219Z,77
2022-08-02T01:48:25.231Z,77
2022-08-02T01:49:27.423Z,75
2022-08-02T01:50:29.247Z,75
2022-08-02T01:51:32.729Z,75
2022-08-02T01:52:33.223Z,75
2022-08-02T01:53:35.213Z,75
2022-08-02T01:54:37.269Z,78
2022-08-02T01:55:57.378Z,77
2022-08-02T01:56:41.222Z,77
2022-08-02T01:57:43.986Z,77
2022-08-02T01:58:45.223Z,79
2022-08-02T01:59:48.061Z,79
2022-08-02T02:00:49.292Z,79
2022-08-02T02:01:51.362Z,80
2022-08-02T02:02:53.232Z,82
2022-08-02T02:03:55.244Z,82
2022-08-02T02:04:57.257Z,82
2022-08-02T02:05:59.241Z,82
2022-08-02T02:07:01.367Z,85
2022-08-02T02:08:03.237Z,85
2022-08-02T02:09:05.241Z,85
2022-08-02T02:10:07.266Z,85
2022-08-02T02:12:03.408Z,86
2022-08-02T02:12:13.289Z,86
2022-08-02T02:13:13.296Z,87
2022-08-02T02:14:15.525Z,88
2022-08-02T02:15:17.252Z,87
2022-08-02T02:16:19.283Z,86
2022-08-02T02:17:50.292Z,86
2022-08-02T02:18:23.251Z,87
2022-08-02T02:19:25.276Z,87
2022-08-02T02:20:27.280Z,87
2022-08-02T02:21:29.306Z,88
2022-08-02T02:22:31.262Z,88
2022-08-02T02:23:33.406Z,88
2022-08-02T02:24:35.304Z,88
2022-08-02T02:25:41.658Z,89
2022-08-02T02:26:41.400Z,89
2022-08-02T02:27:41.272Z,89
2022-08-02T02:28:43.266Z,89
2022-08-02T02:29:45.303Z,89
2022-08-02T02:30:47.293Z,89
2022-08-02T02:31:49.320Z,89
2022-08-02T02:32:51.310Z,90
2022-08-02T02:33:53.288Z,90
2022-08-02T02:34:55.337Z,90
2022-08-02T02:35:57.283Z,90
2022-08-02T02:36:59.277Z,90
2022-08-02T02:38:01.422Z,90
2022-08-02T02:39:03.278Z,89
2022-08-02T02:40:05.379Z,90
2022-08-02T02:41:07.359Z,90
2022-08-02T02:42:09.671Z,93
2022-08-02T02:43:11.295Z,94
2022-08-02T02:44:13.346Z,94
2022-08-02T02:45:15.342Z,92
2022-08-02T02:46:17.359Z,92
2022-08-02T02:47:19.320Z,92
2022-08-02T02:48:21.313Z,92
2022-08-02T02:49:23.396Z,92
2022-08-02T02:50:25.333Z,92
2022-08-02T02:51:27.349Z,91
2022-08-02T02:52:29.332Z,90
2022-08-02T02:54:26.958Z,90
2022-08-02T02:54:35.276Z,90
2022-08-02T02:55:35.363Z,90
2022-08-02T02:56:37.316Z,92
2022-08-02T02:57:39.311Z,92
2022-08-02T02:58:41.390Z,92
2022-08-02T02:59:49.455Z,92
2022-08-02T03:00:45.359Z,93
2022-08-02T03:01:56.483Z,93
2022-08-02T03:02:49.335Z,92
2022-08-02T03:03:51.357Z,93
2022-08-02T03:04:55.530Z,93
2022-08-02T03:05:55.347Z,92
2022-08-02T03:06:57.426Z,92
2022-08-02T03:07:59.352Z,93
2022-08-02T03:09:01.488Z,91
2022-08-02T03:10:03.370Z,90
2022-08-02T03:11:05.404Z,90
2022-08-02T03:12:07.408Z,90
2022-08-02T03:13:09.345Z,90
2022-08-02T03:14:15.560Z,90
2022-08-02T03:15:17.337Z,90
2022-08-02T03:16:19.377Z,90
2022-08-02T03:17:23.059Z,91
2022-08-02T03:18:24.346Z,90
2022-08-02T03:19:26.363Z,93
2022-08-02T03:20:28.381Z,92
2022-08-02T03:21:36.660Z,93
2022-08-02T03:22:38.369Z,92
2022-08-02T03:23:40.346Z,92
2022-08-02T03:24:42.374Z,92
2022-08-02T03:25:44.387Z,90
2022-08-02T03:26:46.436Z,90
2022-08-02T03:27:48.370Z,90
2022-08-02T03:28:50.367Z,89
2022-08-02T03:29:52.386Z,90
2022-08-02T03:30:54.376Z,92
2022-08-02T03:31:56.413Z,92
2022-08-02T03:32:58.382Z,93
2022-08-02T03:34:00.393Z,93
2022-08-02T03:35:02.389Z,95
2022-08-02T03:36:04.381Z,94
2022-08-02T03:37:06.430Z,94
2022-08-02T03:38:08.383Z,93
2022-08-02T03:39:10.387Z,93
2022-08-02T03:40:12.390Z,93
2022-08-02T03:41:14.437Z,94
2022-08-02T03:42:16.383Z,93
2022-08-02T03:43:18.387Z,93
2022-08-02T03:44:20.399Z,90
2022-08-02T03:45:22.395Z,92
2022-08-02T03:46:24.830Z,92
2022-08-02T03:47:26.404Z,92
2022-08-02T03:48:31.943Z,93
2022-08-02T03:49:30.468Z,92
2022-08-02T03:50:32.413Z,90
2022-08-02T03:51:34.444Z,89
2022-08-02T03:52:36.432Z,89
2022-08-02T03:53:38.402Z,89
2022-08-02T03:54:45.551Z,90
2022-08-02T03:55:42.414Z,90
2022-08-02T03:56:45.592Z,90
2022-08-02T03:57:47.417Z,90
2022-08-02T03:58:49.572Z,91
2022-08-02T03:59:51.404Z,90
2022-08-02T04:00:53.483Z,92
2022-08-02T04:01:55.447Z,90
2022-08-02T04:02:57.420Z,90
2022-08-02T04:03:59.419Z,90
2022-08-02T04:05:01.477Z,90
2022-08-02T04:06:04.845Z,89
2022-08-02T04:07:07.386Z,89
2022-08-02T04:08:34.743Z,90
2022-08-02T04:09:09.429Z,89
2022-08-02T04:10:11.433Z,89
2022-08-02T04:11:13.472Z,90
2022-08-02T04:12:15.441Z,90
2022-08-02T04:13:17.494Z,90
2022-08-02T04:14:19.447Z,89
2022-08-02T04:15:21.472Z,89
2022-08-02T04:16:23.458Z,88
2022-08-02T04:17:25.495Z,87
2022-08-02T04:18:27.468Z,88
2022-08-02T04:19:29.501Z,88
2022-08-02T04:20:31.450Z,89
2022-08-02T04:21:41.335Z,89
2022-08-02T04:22:35.953Z,89
2022-08-02T04:23:37.469Z,90
2022-08-02T04:24:39.461Z,90
2022-08-02T04:25:41.473Z,90
2022-08-02T04:26:43.463Z,90
2022-08-02T04:27:49.434Z,90
2022-08-02T04:28:47.475Z,89
2022-08-02T04:29:49.506Z,89
2022-08-02T04:30:51.465Z,89
2022-08-02T04:31:53.470Z,90
2022-08-02T04:32:55.501Z,88
2022-08-02T04:33:57.464Z,90
2022-08-02T04:35:18.498Z,90
2022-08-02T04:36:01.634Z,90
2022-08-02T04:37:03.492Z,90
2022-08-02T04:38:09.026Z,90
2022-08-02T04:39:07.512Z,92
2022-08-02T04:40:09.530Z,92
2022-08-02T04:41:11.483Z,93
2022-08-02T04:42:13.803Z,94
2022-08-02T04:43:15.488Z,95
2022-08-02T04:44:17.535Z,95
2022-08-02T04:45:19.515Z,96
2022-08-02T04:46:21.500Z,96
2022-08-02T04:47:40.186Z,95
2022-08-02T04:48:25.487Z,95
2022-08-02T04:49:27.569Z,96
2022-08-02T04:50:29.511Z,96
2022-08-02T04:51:37.659Z,95
2022-08-02T04:52:33.525Z,96
2022-08-02T04:53:35.506Z,95
2022-08-02T04:54:37.534Z,94
2022-08-02T04:55:39.530Z,94
2022-08-02T04:56:41.508Z,93
2022-08-02T04:57:50.680Z,94
2022-08-02T04:58:45.511Z,93
2022-08-02T04:59:50.435Z,90
2022-08-02T05:00:49.564Z,91
2022-08-02T05:01:51.524Z,90
2022-08-02T05:02:53.519Z,90
2022-08-02T05:03:55.542Z,89
2022-08-02T05:04:57.613Z,89
2022-08-02T05:05:59.547Z,89
2022-08-02T05:07:01.673Z,90
2022-08-02T05:08:03.537Z,90
2022-08-02T05:09:05.522Z,90
2022-08-02T05:10:07.600Z,92
2022-08-02T05:11:09.542Z,93
2022-08-02T05:12:11.763Z,92
2022-08-02T05:13:13.573Z,94
2022-08-02T05:14:15.579Z,93
2022-08-02T05:15:17.565Z,93
2022-08-02T05:16:19.532Z,90
2022-08-02T05:17:21.551Z,87
2022-08-02T05:18:23.593Z,88
2022-08-02T05:19:27.753Z,88
2022-08-02T05:20:30.559Z,89
2022-08-02T05:21:32.677Z,88
2022-08-02T05:22:34.601Z,86
2022-08-02T05:23:36.608Z,86
2022-08-02T05:24:38.591Z,81
2022-08-02T05:25:40.554Z,81
2022-08-02T05:26:42.567Z,81
2022-08-02T05:27:44.562Z,81
2022-08-02T05:28:46.588Z,82
2022-08-02T05:29:51.134Z,82
2022-08-02T05:30:50.582Z,80
2022-08-02T05:31:52.574Z,78
2022-08-02T05:32:54.569Z,78
2022-08-02T05:33:56.621Z,78
2022-08-02T05:34:58.567Z,79
2022-08-02T05:36:00.576Z,78
2022-08-02T05:37:02.607Z,77
2022-08-02T05:38:04.570Z,77
2022-08-02T05:39:06.635Z,77
2022-08-02T05:40:12.580Z,77
2022-08-02T05:41:10.569Z,77
2022-08-02T05:42:12.889Z,78
2022-08-02T05:43:14.595Z,78
2022-08-02T05:44:16.612Z,75
2022-08-02T05:45:18.583Z,74
2022-08-02T05:46:20.600Z,74
2022-08-02T05:47:22.615Z,73
2022-08-02T05:48:29.222Z,73
2022-08-02T05:49:26.659Z,71
2022-08-02T05:50:28.577Z,71
2022-08-02T05:51:30.633Z,70
2022-08-02T05:52:32.627Z,67
2022-08-02T05:53:34.656Z,67
2022-08-02T05:54:39.349Z,67
2022-08-02T05:55:38.608Z,66
2022-08-02T05:56:40.614Z,65
2022-08-02T05:57:43.615Z,65
2022-08-02T05:58:44.656Z,66
2022-08-02T05:59:46.605Z,66
2022-08-02T06:00:48.613Z,64
2022-08-02T06:01:50.659Z,63
2022-08-02T06:02:52.621Z,62
2022-08-02T06:03:56.127Z,62
2022-08-02T06:04:56.671Z,62
2022-08-02T06:05:58.653Z,59
2022-08-02T06:07:00.619Z,59
2022-08-02T06:08:02.733Z,59
2022-08-02T06:09:04.634Z,59
2022-08-02T06:10:06.656Z,57
2022-08-02T06:11:08.620Z,57
2022-08-02T06:12:10.679Z,57
2022-08-02T06:13:13.502Z,57
2022-08-02T06:14:14.644Z,57
2022-08-02T06:15:16.676Z,57
2022-08-02T06:16:22.714Z,57
2022-08-02T06:17:20.641Z,57
2022-08-02T06:18:27.675Z,57
2022-08-02T06:19:24.640Z,56
2022-08-02T06:20:26.801Z,58
2022-08-02T06:22:30.541Z,58
2022-08-02T06:22:34.317Z,58
2022-08-02T06:23:32.655Z,58
2022-08-02T06:24:34.696Z,58
2022-08-02T06:25:48.577Z,59
2022-08-02T06:26:38.690Z,56
2022-08-02T06:27:40.691Z,54
2022-08-02T06:28:42.662Z,52
2022-08-02T06:29:44.696Z,51
2022-08-02T06:30:46.735Z,54
2022-08-02T06:31:48.654Z,54
2022-08-02T06:32:50.659Z,55
2022-08-02T06:33:52.683Z,54
2022-08-02T06:34:54.663Z,54
2022-08-02T06:35:56.877Z,55
2022-08-02T06:36:58.672Z,55
2022-08-02T06:38:00.701Z,54
2022-08-02T06:39:02.670Z,52
2022-08-02T06:40:04.725Z,52
2022-08-02T06:41:06.727Z,56
2022-08-02T06:42:08.973Z,54
2022-08-02T06:43:10.697Z,51
2022-08-02T06:44:46.209Z,48
2022-08-02T06:45:14.687Z,49
2022-08-02T06:46:34.439Z,49
2022-08-02T06:47:18.783Z,48
2022-08-02T06:48:20.711Z,47
2022-08-02T06:49:22.765Z,48
2022-08-02T06:50:24.775Z,47
2022-08-02T06:51:26.705Z,47
2022-08-02T06:52:30.247Z,46
2022-08-02T06:53:30.767Z,50
2022-08-02T06:54:32.820Z,49
2022-08-02T06:55:42.852Z,48
2022-08-02T06:56:36.758Z,49
2022-08-02T06:57:38.711Z,48
2022-08-02T06:58:40.726Z,49
2022-08-02T06:59:42.726Z,47
2022-08-02T07:00:44.762Z,48
2022-08-02T07:01:46.803Z,46
2022-08-02T07:02:48.736Z,44
2022-08-02T07:03:50.769Z,44
2022-08-02T07:04:52.725Z,46
2022-08-02T07:05:54.730Z,46
2022-08-02T07:06:56.743Z,48
2022-08-02T07:07:58.738Z,48
2022-08-02T07:09:19.794Z,50
2022-08-02T07:10:02.780Z,52
2022-08-02T07:11:04.743Z,51
2022-08-02T07:12:06.735Z,50
2022-08-02T07:13:08.807Z,50
2022-08-02T07:14:10.783Z,49
2022-08-02T07:15:12.799Z,49
2022-08-02T07:16:14.876Z,48
2022-08-02T07:17:16.764Z,47
2022-08-02T07:18:18.791Z,48
2022-08-02T07:19:20.747Z,44
2022-08-02T07:20:22.765Z,43
2022-08-02T07:21:33.142Z,42
2022-08-02T07:22:27.124Z,40
2022-08-02T07:23:28.759Z,40
2022-08-02T07:24:30.746Z,40
2022-08-02T07:26:02.163Z,39
2022-08-02T07:26:45.060Z,40
2022-08-02T07:27:36.772Z,41
2022-08-02T07:28:38.754Z,39
2022-08-02T07:29:45.306Z,41
2022-08-02T07:30:42.823Z,43
2022-08-02T07:31:44.772Z,46
2022-08-02T07:32:46.814Z,47
2022-08-02T07:33:48.783Z,46
2022-08-02T07:34:52.793Z,43
2022-08-02T07:35:52.810Z,42
2022-08-02T07:36:54.780Z,40
2022-08-02T07:38:01.898Z,41
2022-08-02T07:38:58.777Z,40
2022-08-02T07:40:00.787Z,37
2022-08-02T07:41:02.820Z,35
2022-08-02T07:42:04.846Z,34
2022-08-02T07:43:06.824Z,37
2022-08-02T07:44:08.801Z,39
2022-08-02T07:45:10.949Z,44
2022-08-02T07:46:12.854Z,46
2022-08-02T07:47:14.795Z,42
2022-08-02T07:48:16.840Z,40
2022-08-02T07:49:18.904Z,37
2022-08-02T07:50:20.858Z,39
2022-08-02T07:51:22.844Z,41
2022-08-02T07:52:24.859Z,47
2022-08-02T07:53:30.691Z,48
2022-08-02T07:54:28.815Z,47
2022-08-02T07:55:35.327Z,48
2022-08-02T07:56:32.816Z,43
2022-08-02T07:57:34.840Z,41
2022-08-02T07:58:36.850Z,41
2022-08-02T07:59:38.825Z,44
2022-08-02T08:00:40.811Z,46
2022-08-02T08:01:44.970Z,46
2022-08-02T08:02:45.847Z,-1
2022-08-02T08:03:47.880Z,46
2022-08-02T08:04:49.843Z,46
2022-08-02T08:05:51.829Z,44
2022-08-02T08:06:53.974Z,43
2022-08-02T08:07:55.866Z,44
2022-08-02T08:08:57.858Z,42
2022-08-02T08:09:59.831Z,43
2022-08-02T08:11:01.888Z,42
2022-08-02T08:12:03.846Z,41
2022-08-02T08:13:05.865Z,40
2022-08-02T08:14:07.872Z,43
2022-08-02T08:15:09.891Z,41
2022-08-02T08:16:11.885Z,35
2022-08-02T08:17:13.851Z,32
2022-08-02T08:18:15.856Z,27
2022-08-02T08:19:17.945Z,27
2022-08-02T08:20:19.882Z,26
2022-08-02T08:21:21.853Z,26
2022-08-02T08:22:23.865Z,28
2022-08-02T08:23:25.927Z,29
2022-08-02T08:24:27.865Z,30
2022-08-02T08:25:30.976Z,32
2022-08-02T08:26:32.862Z,35
2022-08-02T08:27:34.898Z,36
2022-08-02T08:28:36.912Z,39
2022-08-02T08:29:38.872Z,40
2022-08-02T08:30:40.901Z,36
2022-08-02T08:31:42.881Z,35
2022-08-02T08:32:44.877Z,34
2022-08-02T08:33:46.947Z,33
2022-08-02T08:34:48.915Z,34
2022-08-02T08:35:50.895Z,35
2022-08-02T08:36:52.899Z,37
2022-08-02T08:37:54.890Z,38
2022-08-02T08:38:56.919Z,39
2022-08-02T08:39:59.136Z,37
2022-08-02T08:41:00.887Z,37
2022-08-02T08:42:02.309Z,38
2022-08-02T08:43:03.942Z,40
2022-08-02T08:44:05.928Z,40
2022-08-02T08:45:07.913Z,37
2022-08-02T08:46:09.896Z,38
2022-08-02T08:47:11.890Z,40
2022-08-02T08:48:13.904Z,40
2022-08-02T08:49:15.968Z,39
2022-08-02T08:50:21.467Z,35
2022-08-02T08:51:19.935Z,35
2022-08-02T08:52:21.919Z,35
2022-08-02T08:53:23.935Z,34
2022-08-02T08:54:25.961Z,34
2022-08-02T08:55:27.929Z,32
2022-08-02T08:56:29.963Z,29
2022-08-02T08:57:31.932Z,27
2022-08-02T08:58:33.979Z,27
2022-08-02T08:59:39.151Z,28
2022-08-02T09:00:37.937Z,31
2022-08-02T09:01:49.447Z,34
2022-08-02T09:02:40.310Z,34
2022-08-02T09:03:41.365Z,37
2022-08-02T09:04:42.981Z,40
2022-08-02T09:05:44.397Z,40
2022-08-02T09:06:45.323Z,41
2022-08-02T09:07:46.938Z,42
2022-08-02T09:08:48.984Z,39
2022-08-02T09:09:50.980Z,37
2022-08-02T09:10:52.934Z,36
2022-08-02T09:11:54.975Z,32
2022-08-02T09:12:56.957Z,29
2022-08-02T09:13:58.962Z,28
2022-08-02T09:15:00.959Z,27
2022-08-02T09:16:11.009Z,28
2022-08-02T09:17:05.018Z,29
2022-08-02T09:18:06.959Z,32
2022-08-02T09:19:08.961Z,33
2022-08-02T09:20:10.989Z,33
2022-08-02T09:21:12.353Z,34
2022-08-02T09:22:14.525Z,37
2022-08-02T09:23:15.384Z,37
2022-08-02T09:24:16.383Z,40
2022-08-02T09:25:17.997Z,43
2022-08-02T09:26:19.999Z,40
2022-08-02T09:27:21.972Z,36
2022-08-02T09:28:23.973Z,36
2022-08-02T09:29:26.006Z,35
2022-08-02T09:30:28.004Z,36
2022-08-02T09:31:30.005Z,37
2022-08-02T09:32:31.977Z,37
2022-08-02T09:33:33.409Z,37
2022-08-02T09:34:35.006Z,40
2022-08-02T09:36:05.677Z,39
2022-08-02T09:36:39.015Z,39
2022-08-02T09:37:42.038Z,34
2022-08-02T09:38:43.006Z,31
2022-08-02T09:39:45.008Z,28
2022-08-02T09:40:47.045Z,28
2022-08-02T09:41:49.016Z,29
2022-08-02T09:42:51.043Z,32
2022-08-02T09:44:03.178Z,33
2022-08-02T09:44:54.376Z,35
2022-08-02T09:45:55.401Z,35
2022-08-02T09:46:56.461Z,37
2022-08-02T09:47:57.426Z,36
2022-08-02T09:48:58.468Z,39
2022-08-02T09:50:00.067Z,39
2022-08-02T09:51:02.109Z,39
2022-08-02T09:52:03.530Z,34
2022-08-02T09:53:04.412Z,34
2022-08-02T09:54:08.686Z,36
2022-08-02T09:55:06.464Z,40
2022-08-02T09:56:10.585Z,43
2022-08-02T09:57:09.047Z,43
2022-08-02T09:58:11.269Z,40
2022-08-02T09:59:13.066Z,39
2022-08-02T10:00:20.359Z,37
2022-08-02T10:01:17.166Z,33
2022-08-02T10:02:19.110Z,32
2022-08-02T10:03:21.802Z,33
2022-08-02T10:04:22.712Z,31
2022-08-02T10:05:23.659Z,33
2022-08-02T10:06:24.554Z,34
2022-08-02T10:07:25.412Z,36
2022-08-02T10:08:26.445Z,35
2022-08-02T10:09:27.488Z,37
2022-08-02T10:10:28.663Z,40
2022-08-02T10:11:29.507Z,39
2022-08-02T10:12:30.451Z,36
2022-08-02T10:13:32.070Z,40
2022-08-02T10:14:34.060Z,39
2022-08-02T10:15:36.766Z,35
2022-08-02T10:16:38.081Z,34
2022-08-02T10:17:39.572Z,33
2022-08-02T10:18:41.428Z,34
2022-08-02T10:19:59.996Z,35
2022-08-02T10:20:43.542Z,35
2022-08-02T10:21:46.719Z,37
2022-08-02T10:22:45.620Z,40
2022-08-02T10:23:46.468Z,41
2022-08-02T10:24:48.105Z,39
2022-08-02T10:25:48.505Z,37
2022-08-02T10:26:49.502Z,37
2022-08-02T10:28:04.569Z,39
2022-08-02T10:28:53.468Z,35
2022-08-02T10:29:55.887Z,36
2022-08-02T10:30:55.491Z,34
2022-08-02T10:31:56.545Z,35
2022-08-02T10:32:57.481Z,34
2022-08-02T10:33:58.494Z,35
2022-08-02T10:35:02.658Z,34
2022-08-02T10:36:04.359Z,32
2022-08-02T10:37:03.472Z,33
2022-08-02T10:38:05.110Z,35
2022-08-02T10:39:07.096Z,33
2022-08-02T10:40:09.204Z,31
2022-08-02T10:41:10.488Z,31
2022-08-02T10:42:13.590Z,34
2022-08-02T10:43:12.547Z,36
2022-08-02T10:44:23.933Z,32
2022-08-02T10:45:16.431Z,31
2022-08-02T10:46:18.118Z,31
2022-08-02T10:47:20.129Z,31
2022-08-02T10:48:22.166Z,31
2022-08-02T10:49:38.968Z,31
2022-08-02T10:50:25.149Z,31
2022-08-02T10:51:27.972Z,33
2022-08-02T10:52:29.161Z,33
2022-08-02T10:53:31.133Z,32
2022-08-02T10:54:32.514Z,31
2022-08-02T10:55:34.217Z,31
2022-08-02T10:56:35.530Z,31
2022-08-02T10:57:37.156Z,32
2022-08-02T10:58:38.634Z,29
2022-08-02T10:59:39.525Z,29
2022-08-02T11:00:40.554Z,32
2022-08-02T11:01:41.532Z,32
2022-08-02T11:02:42.606Z,33
2022-08-02T11:03:43.541Z,35
2022-08-02T11:04:44.550Z,36
2022-08-02T11:05:46.180Z,35
2022-08-02T11:06:48.166Z,33
2022-08-02T11:07:50.226Z,31
2022-08-02T11:08:52.178Z,27
2022-08-02T11:09:53.560Z,28
2022-08-02T11:10:54.790Z,29
2022-08-02T11:11:55.617Z,31
2022-08-02T11:12:56.605Z,33
2022-08-02T11:13:57.573Z,36
2022-08-02T11:14:58.586Z,36
2022-08-02T11:15:59.550Z,36
2022-08-02T11:17:00.557Z,36
2022-08-02T11:18:01.589Z,37
2022-08-02T11:19:02.617Z,37
2022-08-02T11:20:03.708Z,37
2022-08-02T11:21:04.757Z,37
2022-08-02T11:22:05.563Z,37
2022-08-02T11:23:06.571Z,37
2022-08-02T11:24:07.632Z,39
2022-08-02T11:25:08.580Z,39
2022-08-02T11:26:10.766Z,40
2022-08-02T11:27:10.574Z,41
2022-08-02T11:28:11.583Z,40
2022-08-02T11:29:15.729Z,42
2022-08-02T11:30:13.655Z,40
2022-08-02T11:31:14.591Z,39
2022-08-02T11:32:15.943Z,37
2022-08-02T11:33:17.228Z,37
2022-08-02T11:34:28.971Z,36
2022-08-02T11:35:19.628Z,36
2022-08-02T11:36:20.600Z,39
2022-08-02T11:37:21.621Z,41
2022-08-02T11:38:22.588Z,40
2022-08-02T11:39:23.625Z,40
2022-08-02T11:40:24.653Z,40
2022-08-02T11:41:46.353Z,41
2022-08-02T11:42:26.603Z,41
2022-08-02T11:43:27.604Z,44
2022-08-02T11:44:28.639Z,44
2022-08-02T11:45:30.177Z,44
2022-08-02T11:46:30.667Z,44
2022-08-02T11:47:31.636Z,45
2022-08-02T11:48:32.621Z,46
2022-08-02T11:49:33.741Z,48
2022-08-02T11:50:34.647Z,48
2022-08-02T11:51:35.633Z,47
2022-08-02T11:52:36.640Z,46
2022-08-02T11:53:37.635Z,43
2022-08-02T11:54:38.678Z,42
2022-08-02T11:55:39.626Z,43
2022-08-02T11:56:40.631Z,41
2022-08-02T11:58:01.604Z,40
2022-08-02T11:58:42.628Z,40
2022-08-02T11:59:43.661Z,39
2022-08-02T12:00:44.649Z,40
2022-08-02T12:01:46.490Z,41
2022-08-02T12:02:46.700Z,40
2022-08-02T12:03:47.697Z,37
2022-08-02T12:04:48.653Z,40
2022-08-02T12:06:04.242Z,42
2022-08-02T12:06:50.645Z,39
2022-08-02T12:07:51.659Z,37
2022-08-02T12:08:54.746Z,36
2022-08-02T12:09:53.695Z,35
2022-08-02T12:10:54.689Z,35
2022-08-02T12:11:55.633Z,35
2022-08-02T12:12:56.668Z,36
2022-08-02T12:13:57.703Z,39
2022-08-02T12:14:58.704Z,41
2022-08-02T12:15:59.679Z,43
2022-08-02T12:17:00.732Z,47
2022-08-02T12:18:01.675Z,47
2022-08-02T12:19:02.693Z,46
2022-08-02T12:20:03.812Z,50
2022-08-02T12:21:04.684Z,51
2022-08-02T12:22:05.719Z,51
2022-08-02T12:23:06.732Z,51
2022-08-02T12:24:08.745Z,49
2022-08-02T12:25:09.744Z,50
2022-08-02T12:26:15.821Z,50
2022-08-02T12:27:11.688Z,49
2022-08-02T12:28:16.993Z,47
2022-08-02T12:29:13.711Z,47
2022-08-02T12:30:14.727Z,47
2022-08-02T12:31:15.717Z,46
2022-08-02T12:32:16.710Z,44
2022-08-02T12:33:17.727Z,43
2022-08-02T12:34:19.847Z,43
2022-08-02T12:35:26.221Z,40
2022-08-02T12:36:22.903Z,37
2022-08-02T12:37:23.849Z,39
2022-08-02T12:38:24.667Z,42
2022-08-02T12:39:28.785Z,43
2022-08-02T12:40:26.736Z,44
2022-08-02T12:41:30.660Z,44
2022-08-02T12:42:28.718Z,43
2022-08-02T12:43:29.717Z,43
2022-08-02T12:44:30.738Z,40
2022-08-02T12:45:38.489Z,41
2022-08-02T12:46:35.652Z,42
2022-08-02T12:47:35.450Z,42
2022-08-02T12:48:37.257Z,41
2022-08-02T12:49:35.944Z,41
2022-08-02T12:50:36.759Z,40
2022-08-02T12:51:51.467Z,39
2022-08-02T12:52:38.747Z,39
2022-08-02T12:53:39.734Z,40
2022-08-02T12:54:40.784Z,40
2022-08-02T12:56:00.157Z,42
2022-08-02T12:56:42.796Z,40
2022-08-02T12:57:43.751Z,40
2022-08-02T12:58:44.742Z,37
2022-08-02T12:59:45.769Z,36
2022-08-02T13:00:46.773Z,34
2022-08-02T13:01:47.856Z,34
2022-08-02T13:02:48.817Z,35
2022-08-02T13:04:08.906Z,36
2022-08-02T13:04:51.134Z,36
2022-08-02T13:05:57.402Z,37
2022-08-02T13:06:52.768Z,37
2022-08-02T13:07:53.803Z,40
2022-08-02T13:08:54.778Z,40
2022-08-02T13:10:00.467Z,39
2022-08-02T13:10:56.763Z,41
2022-08-02T13:11:57.773Z,43
2022-08-02T13:12:58.844Z,42
2022-08-02T13:13:59.783Z,42
2022-08-02T13:15:00.757Z,42
2022-08-02T13:16:01.774Z,40
2022-08-02T13:17:03.023Z,40
2022-08-02T13:18:03.788Z,39
2022-08-02T13:19:04.798Z,39
2022-08-02T13:20:05.878Z,40
2022-08-02T13:21:06.793Z,42
2022-08-02T13:22:08.339Z,43
2022-08-02T13:23:08.808Z,40
2022-08-02T13:24:20.897Z,40
2022-08-02T13:25:10.788Z,41
2022-08-02T13:26:11.812Z,42
2022-08-02T13:27:12.899Z,41
2022-08-02T13:28:13.822Z,43
2022-08-02T13:29:14.815Z,41
2022-08-02T13:30:15.913Z,41
2022-08-02T13:31:35.775Z,42
2022-08-02T13:32:17.957Z,43
2022-08-02T13:33:19.427Z,43
2022-08-02T13:34:20.812Z,40
2022-08-02T13:35:21.813Z,39
2022-08-02T13:36:22.828Z,40
2022-08-02T13:37:23.841Z,36
2022-08-02T13:38:27.515Z,35
2022-08-02T13:39:29.475Z,37
2022-08-02T13:40:43.912Z,36
2022-08-02T13:41:31.825Z,35
2022-08-02T13:42:33.521Z,36
2022-08-02T13:43:52.976Z,37
2022-08-02T13:44:36.817Z,36
2022-08-02T13:45:37.836Z,39
2022-08-02T13:46:38.854Z,39
2022-08-02T13:47:57.729Z,37
2022-08-02T13:48:41.534Z,37
2022-08-02T13:49:50.426Z,39
2022-08-02T13:50:43.854Z,40
2022-08-02T13:51:44.870Z,40
2022-08-02T13:52:45.854Z,41
2022-08-02T13:53:46.883Z,44
2022-08-02T13:54:47.916Z,43
2022-08-02T13:55:52.260Z,43
2022-08-02T13:56:50.885Z,41
2022-08-02T13:57:53.486Z,39
2022-08-02T13:58:54.498Z,36
2022-08-02T13:59:58.989Z,37
2022-08-02T14:00:56.967Z,37
2022-08-02T14:01:58.792Z,39
2022-08-02T14:03:00.512Z,37
2022-08-02T14:04:05.594Z,36
2022-08-02T14:05:04.528Z,38
2022-08-02T14:06:06.524Z,37
2022-08-02T14:07:08.497Z,37
2022-08-02T14:08:14.608Z,37
2022-08-02T14:09:15.579Z,39
2022-08-02T14:10:14.513Z,39
2022-08-02T14:11:15.885Z,40
2022-08-02T14:12:17.279Z,42
2022-08-02T14:13:18.538Z,42
2022-08-02T14:14:20.515Z,40
2022-08-02T14:15:22.534Z,40
2022-08-02T14:16:24.557Z,39
2022-08-02T14:17:26.588Z,40
2022-08-02T14:18:27.930Z,41
2022-08-02T14:19:28.934Z,43
2022-08-02T14:20:30.619Z,43
2022-08-02T14:21:32.571Z,42
2022-08-02T14:22:34.537Z,44
2022-08-02T14:23:46.835Z,41
2022-08-02T14:24:38.523Z,41
2022-08-02T14:25:40.538Z,41
2022-08-02T14:26:42.578Z,40
2022-08-02T14:27:44.569Z,40
2022-08-02T14:28:46.758Z,39
2022-08-02T14:29:47.932Z,40
2022-08-02T14:30:48.982Z,41
2022-08-02T14:31:49.914Z,42
2022-08-02T14:32:51.565Z,43
2022-08-02T14:33:52.996Z,44
2022-08-02T14:34:53.998Z,44
2022-08-02T14:35:55.505Z,46
2022-08-02T14:36:56.591Z,46
2022-08-02T14:37:57.954Z,44
2022-08-02T14:38:58.946Z,44
2022-08-02T14:40:01.300Z,44
2022-08-02T14:41:01.944Z,43